Aviation Digital Data Service (ADDS)

Output produced by METARs form (0243 UTC 24 July 2017)
found at http://www.aviationweather.gov/adds/metars/
 
URWA 240230Z 33005MPS CAVOK 22/16 Q1010 R27/010070 NOSIG RMK QFE759/1012
TAF URWA 240200Z 2403/2412 33005G10MPS 9999 SCT030CB 
     BECMG 2406/2407 03007G13MPS
       
UUDD 240230Z VRB01MPS CAVOK 12/09 Q1014 R32L/010095 NOSIG
TAF UUDD 240156Z 2403/2509 26003MPS 9999 SCT030 TX23/2412Z TN13/2501Z 
     TEMPO 2406/2416 26008MPS
       
UIII 240230Z 15002MPS CAVOK 16/12 Q1012 R12/60D NOSIG RMK QFE716/0955
TAF UIII 240200Z 2403/2503 16003MPS 9999 SCT020CB
       
UWKD 240230Z 28005MPS 9999 BKN008CB 14/12 Q1007 R29/2/0050 NOSIG RMK QFE744/0993
TAF UWKD 240156Z 2403/2503 26007G12MPS 9999 BKN020 TX16/2412Z TN12/2501Z 
     TEMPO 2403/2406 27005MPS 3000 -SHRA BR BKN005 BKN015CB 
     TEMPO 2406/2415 3000 -SHRA BKN010 BKN020CB
       
USSS 240230Z 00000MPS 8000 NSC 15/15 Q1008 R26R/010060 NOSIG RMK QFE735/0981
TAF USSS 240155Z 2403/2503 21003MPS 3100 BR SCT011 
     BECMG 2404/2406 9999 NSW SCT020CB 
     TEMPO 2406/2415 VRB15MPS -TSRA SQ BKN011 BKN015CB
       
UMKK 240230Z 04002MPS 9999 OVC011 17/17 Q1009 R06/60D NOSIG RMK QFE755/1007
TAF UMKK 240200Z 2403/2503 36003G08MPS 9999 BKN011 
     TEMPO 2403/2406 VRB01MPS 3100 -SHRA BR BKN004 BKN015CB 
     TEMPO 2406/2418 04007MPS BKN004 BKN015CB 
     BECMG 2418/2420 06003G08MPS
       
UHWW 240230Z 09002MPS 060V130 9999 BKN016 24/19 Q1001 R25L/0///70 NOSIG RMK QFE750
TAF UHWW 240155Z 2403/2503 20003MPS 9999 BKN020CB 
     TEMPO 2403/2408 3000 -SHRA BR SCT007 BKN015CB 
     BECMG 2408/2410 2100 -SHRA BR BKN007 BKN020CB 
     BECMG 2415/2417 34003MPS 
     BECMG 2500/2502 9999 NSW SCT030CB
       
USSS 240230Z 00000MPS 8000 NSC 15/15 Q1008 R26R/010060 NOSIG RMK QFE735/0981
TAF USSS 240155Z 2403/2503 21003MPS 3100 BR SCT011 
     BECMG 2404/2406 9999 NSW SCT020CB 
     TEMPO 2406/2415 VRB15MPS -TSRA SQ BKN011 BKN015CB
       
UNKL 240230Z VRB01MPS 9999 SCT045 22/16 Q1010 R29/CLRD65 NOSIG RMK QFE732
TAF UNKL 240200Z 2403/2503 09003G08MPS 9999 SCT020CB 
     TEMPO 2403/2415 2100 -TSRA BKN013CB
       
URMM 240230Z 30005MPS 9999 FEW059 16/15 Q1013 R30/090070 NOSIG RMK QFE732/0976
TAF URMM 240200Z 2403/2503 29003G08MPS 9999 SCT030 TX30/2412Z TN19/2502Z 
     TEMPO 2403/2406 VRB01MPS 3100 BR BKN011 
     BECMG 2408/2410 09003G08MPS 
     TEMPO 2415/2503 VRB01MPS
       
USSS 240230Z 00000MPS 8000 NSC 15/15 Q1008 R26R/010060 NOSIG RMK QFE735/0981
TAF USSS 240155Z 2403/2503 21003MPS 3100 BR SCT011 
     BECMG 2404/2406 9999 NSW SCT020CB 
     TEMPO 2406/2415 VRB15MPS -TSRA SQ BKN011 BKN015CB
       
UHHH 240230Z 25006MPS 9999 BKN027CB 24/17 Q0997 R23L/090060 NOSIG RMK QFE741/0988
TAF UHHH 240152Z 2403/2509 26007MPS 9999 BKN020CB 
     TEMPO 2405/2413 3000 -TSRA SCT006 BKN015CB 
     BECMG 2416/2418 SCT006 SCT020CB 
     BECMG 2423/2501 SCT025CB
       
URKK 240230Z VRB01MPS 9999 MIFG NSC 20/19 Q1011 R23L/CLRD70 TEMPO 0300 FG SCT002 RMK QFE755
TAF AMD URKK 240156Z 2402/2503 24003G08MPS 3100 BR SCT011 
     TEMPO 2403/2406 0300 FG SCT002 
     FM240600 33003G08MPS 9999 BKN030CB 
     TEMPO 2408/2421 3100 -TSRA SCT011 BKN020CB
       
ULLI 240230Z 27005MPS 9999 OVC020 14/11 Q1010 R28L/090060 NOSIG
TAF ULLI 240155Z 2403/2503 27004MPS 9999 BKN011 BKN020 
     TEMPO 2403/2406 28003G08MPS 2100 -SHRA BKN007 BKN020CB 
     TEMPO 2406/2420 31006G12MPS 3100 -TSRA BKN007 BKN020CB 
     BECMG 2420/2421 35003MPS 
     TEMPO 2420/2503 0500 FG VV002
       
URRR 240230Z 09003MPS 5000 BR NSC 19/17 Q1010 R04/CLRD70 TEMPO 0500 FG SCT002 RMK QFE751/1002
TAF URRR 240158Z 2403/2503 06003G08MPS 9999 SCT030CB 
     TEMPO 2403/2406 3100 BR SCT011 SCT030CB 
     PROB40 
     TEMPO 2403/2409 -TSRA 
     TEMPO 2409/2421 3100 -TSRAGR SCT011 BKN020CB
       
UUEE 240230Z 25002MPS CAVOK 11/09 Q1013 R24L/CLRD62 NOSIG
TAF UUEE 240200Z 2403/2503 26004MPS 9999 SCT030 TX21/2413Z TN11/2501Z 
     TEMPO 2406/2415 26009MPS
       
URSS 240230Z 07004MPS 9999 FEW033CB BKN120 22/19 Q1010 R06/090070 R02/090070 NOSIG RMK R02/05005MPS MT OBSC QFE757
TAF URSS 240157Z 2403/2503 05006MPS 9999 SCT030CB BKN100 
     TEMPO 2403/2406 VRB07G12MPS -TSRA 
     BECMG 2406/2407 22005G10MPS 
     BECMG 2409/2411 27006G11MPS 
     TEMPO 2409/2418 -TSRA 
     BECMG 2418/2419 06005MPS BKN015 BKN020CB OVC100
       
UNNT 240230Z 15003MPS 9999 FEW008 21/18 Q1009 R25/090070 R34/090070 NOSIG RMK QFE747/0996
TAF UNNT 240200Z 2403/2503 12003G08MPS 9999 BKN030CB 
     TEMPO 2403/2418 18008G15MPS 3000 -TSRA BKN015CB 
     TEMPO 2418/2502 0500 FG BKN005 BKN015CB
       
UUWW 240230Z 23002MPS CAVOK 12/09 Q1014 R24/000070 NOSIG
TAF UUWW 240158Z 2403/2503 24004MPS 9999 SCT030 TX22/2412Z TN12/2501Z 
     TEMPO 2407/2418 26009MPS 
     BECMG 2420/2422 VRB01MPS
       
UHPP 240230Z 17006MPS 9999 NSC 22/15 Q1011 R34L/CLRD70 NOSIG RMK MT OBSC QFE755/1006
TAF UHPP 240145Z 2403/2509 18003G10MPS 9999 SCT030CB BKN060 
     FM240600 18003G12MPS 9999 -SHRA BKN011 OVC025CB 
     TEMPO 2406/2412 BKN003 OVC012CB 
     FM241200 18003G12MPS 5000 -SHRA BR BKN007 OVC020CB 
     TEMPO 2412/2509 1000 SHRA BR VV003